Time;durP1;ratioP1;P1;durP2;ratioP2;P2;SDS_P1;SDS_P2;PMS_P1;PMS_P2;Temp;Humidity;BMP_temperature;BMP_pressure;BME280_temperature;BME280_humidity;BME280_pressure;Samples;Min_cycle;Max_cycle;Signal;HPM_P1;HPM_P2
2022/12/20 00:01:41;;;;;;;54.30;25.60;;;4.10;58.80;;;;;;4884496;29;20975;-86
2022/12/20 00:04:11;;;;;;;62.50;26.67;;;4.30;58.40;;;;;;4881125;29;20475;-86
2022/12/20 00:06:38;;;;;;;62.83;25.40;;;4.10;58.40;;;;;;4901721;29;21109;-86
2022/12/20 00:09:07;;;;;;;67.53;28.30;;;4.00;58.50;;;;;;4906558;29;21041;-86
2022/12/20 00:11:37;;;;;;;51.53;27.70;;;4.30;58.50;;;;;;4894106;29;20448;-85
2022/12/20 00:14:04;;;;;;;54.57;25.70;;;4.50;58.00;;;;;;4899058;29;20491;-86
2022/12/20 00:16:31;;;;;;;59.53;26.60;;;4.50;57.60;;;;;;4930355;29;21064;-84
2022/12/20 00:19:01;;;;;;;61.20;25.77;;;4.40;57.20;;;;;;4864107;29;20848;-86
2022/12/20 00:21:29;;;;;;;65.57;25.23;;;4.20;58.00;;;;;;4928239;29;20978;-86
2022/12/20 00:23:57;;;;;;;60.47;25.97;;;4.40;57.90;;;;;;4890251;29;21019;-86
2022/12/20 00:26:25;;;;;;;56.70;25.10;;;4.40;58.00;;;;;;4889899;29;20474;-86
2022/12/20 00:28:55;;;;;;;60.20;24.47;;;4.30;58.00;;;;;;4912494;29;20454;-86
2022/12/20 00:31:23;;;;;;;62.90;27.07;;;4.30;58.40;;;;;;4912923;29;20946;-85
2022/12/20 00:33:53;;;;;;;62.20;27.73;;;4.30;58.30;;;;;;4924588;28;21064;-86
2022/12/20 00:36:22;;;;;;;56.87;25.00;;;4.00;59.20;;;;;;4881883;29;20440;-85
2022/12/20 00:38:51;;;;;;;56.20;25.13;;;4.30;58.80;;;;;;4927795;29;20538;-86
2022/12/20 00:41:20;;;;;;;77.83;28.40;;;4.50;57.80;;;;;;4913728;29;20478;-86
2022/12/20 00:43:47;;;;;;;64.50;28.17;;;4.60;57.80;;;;;;4911668;29;20467;-86
2022/12/20 00:46:17;;;;;;;62.20;25.37;;;4.70;57.60;;;;;;4911347;29;20563;-86
2022/12/20 00:48:44;;;;;;;58.50;30.03;;;4.70;57.60;;;;;;4924772;29;20832;-84
2022/12/20 00:51:13;;;;;;;65.37;26.60;;;4.80;57.80;;;;;;4891131;29;20455;-86
2022/12/20 00:53:41;;;;;;;55.87;27.80;;;4.80;57.80;;;;;;4898690;29;20851;-85
2022/12/20 00:56:09;;;;;;;61.57;28.00;;;4.40;58.30;;;;;;4907071;29;20889;-86
2022/12/20 00:58:38;;;;;;;68.63;28.70;;;4.30;59.20;;;;;;4909223;29;20490;-85
2022/12/20 01:01:14;;;;;;;60.80;28.33;;;4.40;59.10;;;;;;4900314;29;20459;-86
2022/12/20 01:03:42;;;;;;;62.23;26.60;;;4.10;59.90;;;;;;4893351;29;20475;-86
2022/12/20 01:06:10;;;;;;;59.77;24.40;;;3.90;60.50;;;;;;4917076;29;20487;-86
2022/12/20 01:08:37;;;;;;;65.70;27.20;;;3.90;61.00;;;;;;4908690;29;20463;-85
2022/12/20 01:11:07;;;;;;;64.93;26.63;;;4.10;60.50;;;;;;4900690;29;20450;-86
2022/12/20 01:13:36;;;;;;;68.30;27.40;;;4.10;60.20;;;;;;4894453;29;20941;-85
2022/12/20 01:16:07;;;;;;;65.27;28.10;;;4.10;60.60;;;;;;4914359;29;20452;-84
2022/12/20 01:18:34;;;;;;;57.30;26.60;;;4.30;60.30;;;;;;4899178;29;20553;-83
2022/12/20 01:21:05;;;;;;;54.97;25.40;;;4.40;60.10;;;;;;4891731;29;20477;-86
2022/12/20 01:23:32;;;;;;;64.87;28.50;;;4.70;59.50;;;;;;4932710;29;21099;-86
2022/12/20 01:26:00;;;;;;;63.93;30.50;;;4.80;58.90;;;;;;4886011;29;20874;-86
2022/12/20 01:28:28;;;;;;;65.80;30.17;;;4.70;59.10;;;;;;4908961;29;20455;-85
2022/12/20 01:30:55;;;;;;;60.87;30.40;;;4.50;59.20;;;;;;4922656;29;20934;-85
2022/12/20 01:33:22;;;;;;;65.60;29.23;;;4.20;59.80;;;;;;4893268;29;20542;-86
2022/12/20 01:35:58;;;;;;;65.50;27.43;;;4.20;60.30;;;;;;4891562;29;20469;-86
2022/12/20 01:38:27;;;;;;;64.87;28.80;;;4.50;60.50;;;;;;4893847;29;20472;-85
2022/12/20 01:40:55;;;;;;;57.27;28.80;;;4.30;59.60;;;;;;4868773;29;20543;-86
2022/12/20 01:43:23;;;;;;;65.73;29.80;;;4.40;60.10;;;;;;4933490;29;20454;-85
2022/12/20 01:45:51;;;;;;;88.40;35.20;;;4.30;60.80;;;;;;4886147;29;20471;-85
2022/12/20 01:48:26;;;;;;;75.77;31.47;;;4.50;60.20;;;;;;4924690;29;20680;-86
2022/12/20 01:50:53;;;;;;;67.27;28.27;;;4.70;59.60;;;;;;4907071;29;20458;-86
2022/12/20 01:53:24;;;;;;;59.70;28.23;;;4.80;59.40;;;;;;4877001;29;20463;-85
2022/12/20 01:55:53;;;;;;;70.70;26.07;;;4.80;58.90;;;;;;4899213;29;20462;-86
2022/12/20 01:58:22;;;;;;;64.57;27.17;;;4.60;59.30;;;;;;4907943;29;20454;-86
2022/12/20 02:00:49;;;;;;;58.40;28.93;;;4.50;59.80;;;;;;4901659;29;20529;-84
2022/12/20 02:03:17;;;;;;;65.23;26.87;;;4.40;60.80;;;;;;4916889;29;20459;-85
2022/12/20 02:05:46;;;;;;;65.37;30.60;;;4.60;60.60;;;;;;4886019;29;20478;-85
2022/12/20 02:08:16;;;;;;;62.20;28.00;;;4.90;59.70;;;;;;4923247;29;20491;-86
2022/12/20 02:10:56;;;;;;;65.83;31.97;;;5.00;59.30;;;;;;4892692;29;20468;-85
2022/12/20 02:13:35;;;;;;;62.33;28.47;;;5.10;58.90;;;;;;4892120;29;20991;-86
2022/12/20 02:16:04;;;;;;;77.03;31.70;;;5.30;58.60;;;;;;4883667;29;20453;-86
2022/12/20 02:18:39;;;;;;;65.80;30.30;;;5.30;58.30;;;;;;4899801;29;20472;-85
2022/12/20 02:21:25;;;;;;;76.00;28.90;;;5.20;58.60;;;;;;4900038;29;20980;-85
2022/12/20 02:24:27;;;;;;;59.50;26.20;;;5.20;58.20;;;;;;4905317;29;20486;-86
2022/12/20 02:27:31;;;;;;;75.07;32.50;;;5.10;58.50;;;;;;4875894;29;20971;-85
2022/12/20 02:30:08;;;;;;;60.83;30.20;;;5.20;58.20;;;;;;4896658;29;20952;-85
2022/12/20 02:32:40;;;;;;;62.07;27.43;;;5.30;58.00;;;;;;4899011;29;20463;-85
2022/12/20 02:35:09;;;;;;;62.47;25.60;;;5.30;57.90;;;;;;4884121;29;22064;-85
2022/12/20 02:37:36;;;;;;;71.00;29.43;;;5.20;58.30;;;;;;4876203;29;20539;-86
2022/12/20 02:40:05;;;;;;;78.47;29.20;;;5.10;58.80;;;;;;4881209;29;20541;-86
2022/12/20 02:42:34;;;;;;;71.47;31.57;;;5.00;59.00;;;;;;4915071;29;20482;-84
2022/12/20 02:45:14;;;;;;;81.50;30.80;;;5.00;59.30;;;;;;4906511;29;20472;-86
2022/12/20 02:47:48;;;;;;;83.40;29.53;;;4.80;59.80;;;;;;4908775;29;20509;-86
2022/12/20 02:50:18;;;;;;;64.87;25.97;;;4.70;59.90;;;;;;4916543;29;20648;-84
2022/12/20 02:52:46;;;;;;;75.00;29.80;;;4.80;59.90;;;;;;4891737;29;20476;-85
2022/12/20 02:55:13;;;;;;;61.87;29.50;;;4.90;59.90;;;;;;4881755;29;20475;-86
2022/12/20 02:57:46;;;;;;;74.33;30.10;;;4.90;59.70;;;;;;4914644;29;20822;-84
2022/12/20 03:00:17;;;;;;;69.13;27.67;;;5.10;59.10;;;;;;4884679;29;20586;-85
2022/12/20 03:05:32;;;;;;;66.13;26.47;;;5.10;58.70;;;;;;4915920;29;20467;-86
2022/12/20 03:07:59;;;;;;;66.93;29.90;;;5.20;58.80;;;;;;4914634;29;20842;-85
2022/12/20 03:10:26;;;;;;;81.63;29.40;;;5.20;58.80;;;;;;4883107;29;20542;-86
2022/12/20 03:12:54;;;;;;;57.83;28.83;;;5.10;59.30;;;;;;4884966;29;20462;-85
2022/12/20 03:15:22;;;;;;;57.03;26.93;;;5.30;59.00;;;;;;4887297;29;20542;-86
2022/12/20 03:17:52;;;;;;;64.50;27.80;;;5.30;58.70;;;;;;4867550;29;20632;-85
2022/12/20 03:20:19;;;;;;;60.20;28.13;;;4.90;59.30;;;;;;4893411;29;20462;-86
2022/12/20 03:22:46;;;;;;;68.73;29.10;;;4.80;60.10;;;;;;4885215;29;20448;-83
2022/12/20 03:25:14;;;;;;;58.07;27.43;;;5.00;59.50;;;;;;4915221;29;20474;-85
2022/12/20 03:27:41;;;;;;;60.97;29.70;;;4.80;60.20;;;;;;4891160;29;20993;-86
2022/12/20 03:30:10;;;;;;;63.57;27.53;;;4.90;60.20;;;;;;4882739;29;20462;-86
2022/12/20 03:32:39;;;;;;;62.07;30.07;;;4.80;60.50;;;;;;4929168;29;20988;-86
2022/12/20 03:35:08;;;;;;;71.03;29.80;;;4.70;60.90;;;;;;4895941;29;20483;-85
2022/12/20 03:37:38;;;;;;;65.60;27.70;;;4.80;61.30;;;;;;4902140;29;20462;-86
2022/12/20 03:40:07;;;;;;;52.53;26.70;;;5.00;60.40;;;;;;4912293;29;20463;-86
2022/12/20 03:42:35;;;;;;;54.27;28.57;;;5.10;60.10;;;;;;4899445;29;20459;-84
2022/12/20 03:45:03;;;;;;;67.30;27.90;;;5.10;60.00;;;;;;4914071;29;21057;-86
2022/12/20 03:47:31;;;;;;;83.67;29.83;;;4.90;60.20;;;;;;4887864;29;20481;-86
2022/12/20 03:49:59;;;;;;;62.27;26.20;;;5.10;60.10;;;;;;4888651;29;20440;-86
2022/12/20 03:52:28;;;;;;;57.13;25.47;;;5.10;59.80;;;;;;4881108;29;20455;-86
2022/12/20 03:54:55;;;;;;;70.13;26.03;;;5.00;59.90;;;;;;4914500;29;20497;-85
2022/12/20 03:57:29;;;;;;;59.50;26.00;;;5.10;60.10;;;;;;4906445;29;20444;-85
2022/12/20 03:59:58;;;;;;;58.47;26.57;;;5.30;59.50;;;;;;4914342;29;20460;-85
2022/12/20 04:02:25;;;;;;;70.27;28.50;;;5.40;59.00;;;;;;4885853;29;20467;-85
2022/12/20 04:04:53;;;;;;;76.57;29.37;;;5.10;59.60;;;;;;4870896;29;20901;-85
2022/12/20 04:07:21;;;;;;;78.37;27.07;;;5.20;59.90;;;;;;4914039;29;20467;-86
2022/12/20 04:09:48;;;;;;;70.37;28.40;;;5.40;59.50;;;;;;4895279;29;20856;-83
2022/12/20 04:12:16;;;;;;;80.63;28.30;;;5.40;59.50;;;;;;4894686;29;20479;-86
2022/12/20 04:14:43;;;;;;;57.33;28.00;;;5.50;59.30;;;;;;4884948;29;20479;-85
2022/12/20 04:17:12;;;;;;;70.60;29.07;;;5.40;59.10;;;;;;4889875;29;20543;-86
2022/12/20 04:19:39;;;;;;;79.03;27.83;;;5.00;60.10;;;;;;4927512;28;20471;-86
2022/12/20 04:22:08;;;;;;;60.53;28.20;;;4.50;61.70;;;;;;4887925;29;20498;-86
2022/12/20 04:24:48;;;;;;;56.43;26.37;;;4.70;62.10;;;;;;4906392;29;20882;-85
2022/12/20 04:27:22;;;;;;;73.03;27.90;;;5.10;61.50;;;;;;4906764;29;20480;-86
2022/12/20 04:29:51;;;;;;;54.77;26.77;;;5.30;60.30;;;;;;4865814;29;20869;-83
2022/12/20 04:32:20;;;;;;;59.87;28.03;;;5.40;60.20;;;;;;4895497;29;20935;-85
2022/12/20 04:34:47;;;;;;;67.17;29.60;;;5.20;59.90;;;;;;4898220;29;20933;-86
2022/12/20 04:37:14;;;;;;;63.90;26.70;;;5.20;60.10;;;;;;4874096;29;20452;-85
2022/12/20 04:39:49;;;;;;;66.70;28.90;;;5.30;60.00;;;;;;4899958;29;20455;-86
2022/12/20 04:42:22;;;;;;;62.93;26.80;;;5.30;60.20;;;;;;4882851;29;20447;-86
2022/12/20 04:44:50;;;;;;;61.27;26.83;;;5.40;59.60;;;;;;4891344;29;20746;-85
2022/12/20 04:47:22;;;;;;;61.73;25.40;;;5.50;59.40;;;;;;4897320;29;20749;-86
2022/12/20 04:49:52;;;;;;;64.13;26.07;;;5.40;59.60;;;;;;4920606;29;20459;-86
2022/12/20 04:55:05;;;;;;;61.30;26.67;;;5.30;60.10;;;;;;4900266;29;20472;-86
2022/12/20 04:57:34;;;;;;;57.67;27.10;;;5.30;60.00;;;;;;4882573;29;20453;-86
2022/12/20 05:00:02;;;;;;;58.47;27.37;;;5.50;59.70;;;;;;4881974;29;20473;-86
2022/12/20 05:02:29;;;;;;;61.50;26.87;;;5.60;59.40;;;;;;4887631;29;20507;-88
2022/12/20 05:05:03;;;;;;;53.73;23.73;;;5.60;58.80;;;;;;4906620;29;20493;-88
2022/12/20 05:07:35;;;;;;;58.77;27.83;;;5.60;58.90;;;;;;4888379;29;20485;-87
2022/12/20 05:10:05;;;;;;;61.40;28.10;;;5.50;59.30;;;;;;4890842;29;20534;-87
2022/12/20 05:12:32;;;;;;;67.63;27.60;;;5.50;59.10;;;;;;4908620;29;20968;-87
2022/12/20 05:15:01;;;;;;;70.83;29.33;;;5.40;59.60;;;;;;4916682;29;20593;-86
2022/12/20 05:17:29;;;;;;;58.13;28.37;;;5.40;59.30;;;;;;4914772;29;20483;-86
2022/12/20 05:19:56;;;;;;;72.60;28.83;;;5.50;59.40;;;;;;4869485;29;20474;-85
2022/12/20 05:28:02;;;;;;;65.17;28.27;;;5.30;60.70;;;;;;4863831;29;20487;-86
2022/12/20 05:30:33;;;;;;;67.40;27.40;;;5.50;60.10;;;;;;4865754;29;20848;-86
2022/12/20 05:33:00;;;;;;;75.43;29.70;;;5.70;59.70;;;;;;4901979;29;20939;-86
2022/12/20 05:35:28;;;;;;;71.87;29.83;;;5.80;59.30;;;;;;4866512;29;20565;-87
2022/12/20 05:38:02;;;;;;;66.13;27.63;;;5.90;59.00;;;;;;4884311;29;21332;-86
2022/12/20 05:40:31;;;;;;;68.57;30.77;;;5.90;58.80;;;;;;4910239;29;20448;-86
2022/12/20 05:42:59;;;;;;;55.00;25.67;;;5.80;58.60;;;;;;4910584;29;20554;-86
2022/12/20 05:45:35;;;;;;;67.83;26.67;;;5.80;58.90;;;;;;4900118;29;21106;-86
2022/12/20 05:48:07;;;;;;;70.27;29.40;;;5.70;59.20;;;;;;4914116;29;20475;-87
2022/12/20 05:50:37;;;;;;;62.07;30.83;;;5.70;59.20;;;;;;4905968;29;20459;-87
2022/12/20 05:53:37;;;;;;;55.13;26.60;;;5.20;60.40;;;;;;4885351;29;20482;-87
2022/12/20 05:56:08;;;;;;;67.97;27.00;;;5.30;60.90;;;;;;4885878;29;20461;-86
2022/12/20 05:58:39;;;;;;;56.77;26.80;;;5.50;60.20;;;;;;4869597;29;20448;-86
2022/12/20 06:01:09;;;;;;;66.83;29.53;;;5.70;59.80;;;;;;4901101;29;20447;-86
2022/12/20 06:03:39;;;;;;;62.83;26.73;;;5.70;59.60;;;;;;4900989;29;20882;-87
2022/12/20 06:06:09;;;;;;;62.07;28.40;;;5.80;59.40;;;;;;4913798;29;20489;-86
2022/12/20 06:08:37;;;;;;;71.63;30.60;;;5.80;59.10;;;;;;4892012;29;20463;-86
2022/12/20 06:11:09;;;;;;;61.83;28.13;;;5.90;58.90;;;;;;4899059;29;20451;-88
2022/12/20 06:13:46;;;;;;;76.87;28.43;;;5.90;58.80;;;;;;4884587;29;20525;-88
2022/12/20 06:16:14;;;;;;;56.67;29.47;;;5.80;58.90;;;;;;4882727;29;20470;-87
2022/12/20 06:18:41;;;;;;;55.27;26.10;;;5.80;59.20;;;;;;4900686;29;21049;-86
2022/12/20 06:21:09;;;;;;;67.30;31.63;;;5.90;59.00;;;;;;4921789;29;20965;-87
2022/12/20 06:23:36;;;;;;;54.20;30.10;;;6.00;58.90;;;;;;4907639;29;20509;-87
2022/12/20 06:26:09;;;;;;;54.33;26.70;;;6.00;58.50;;;;;;4876739;29;20451;-87
2022/12/20 06:28:42;;;;;;;60.53;27.33;;;6.00;58.70;;;;;;4903408;29;20494;-88
2022/12/20 06:31:10;;;;;;;61.53;27.37;;;5.90;58.70;;;;;;4900250;29;20460;-87
2022/12/20 06:33:48;;;;;;;69.73;29.43;;;5.90;58.90;;;;;;4879866;29;20491;-87
2022/12/20 06:36:16;;;;;;;60.77;27.63;;;5.80;59.40;;;;;;4877602;29;21345;-87
2022/12/20 06:38:44;;;;;;;76.63;30.97;;;5.90;59.30;;;;;;4901164;29;20474;-88
2022/12/20 06:41:12;;;;;;;76.53;31.90;;;5.90;58.90;;;;;;4905498;29;20462;-86
2022/12/20 06:43:40;;;;;;;60.90;31.40;;;6.00;58.80;;;;;;4900059;29;20543;-87
2022/12/20 06:46:08;;;;;;;81.97;32.70;;;6.00;58.60;;;;;;4923256;29;20555;-87
2022/12/20 06:48:35;;;;;;;71.13;30.07;;;6.00;58.60;;;;;;4928322;29;20483;-87
2022/12/20 06:51:02;;;;;;;65.67;31.63;;;5.80;59.40;;;;;;4897504;29;20456;-87
2022/12/20 06:53:29;;;;;;;71.17;28.87;;;5.90;59.30;;;;;;4877535;29;20455;-86
2022/12/20 06:55:56;;;;;;;60.23;30.70;;;5.90;58.90;;;;;;4899425;29;20841;-87
2022/12/20 06:58:24;;;;;;;57.33;28.30;;;5.90;59.40;;;;;;4907571;29;20985;-86
2022/12/20 07:00:51;;;;;;;71.67;27.77;;;5.90;59.40;;;;;;4902134;29;21129;-86
2022/12/20 07:03:18;;;;;;;57.33;29.37;;;6.00;59.00;;;;;;4874413;29;20459;-86
2022/12/20 07:05:51;;;;;;;66.97;28.73;;;6.10;59.10;;;;;;4879335;29;20548;-88
2022/12/20 07:08:18;;;;;;;95.23;41.73;;;6.10;59.00;;;;;;4898469;29;21908;-86
2022/12/20 07:10:45;;;;;;;87.60;36.10;;;6.10;59.20;;;;;;4894830;29;20471;-87
2022/12/20 07:13:12;;;;;;;67.13;38.03;;;6.00;59.10;;;;;;4887627;29;20451;-86
2022/12/20 07:15:40;;;;;;;81.07;35.07;;;6.00;59.30;;;;;;4905025;29;20472;-87
2022/12/20 07:18:07;;;;;;;70.03;33.90;;;6.00;59.50;;;;;;4914496;29;20463;-88
2022/12/20 07:20:34;;;;;;;74.67;36.37;;;6.00;59.50;;;;;;4915779;29;20448;-86
2022/12/20 07:23:01;;;;;;;90.80;42.77;;;6.10;59.30;;;;;;4883854;29;20468;-87
2022/12/20 07:25:28;;;;;;;119.60;49.70;;;6.00;59.10;;;;;;4875830;29;20918;-86
2022/12/20 07:27:55;;;;;;;103.90;45.67;;;5.50;60.50;;;;;;4905740;29;20483;-86
2022/12/20 07:30:23;;;;;;;91.33;38.20;;;5.70;60.50;;;;;;4896238;29;20466;-86
2022/12/20 07:32:51;;;;;;;94.27;36.40;;;5.90;59.90;;;;;;4892536;29;20493;-86
2022/12/20 07:35:18;;;;;;;86.27;37.50;;;5.80;60.00;;;;;;4897408;29;20506;-87
2022/12/20 07:37:45;;;;;;;77.40;37.10;;;5.70;60.40;;;;;;4901126;29;20900;-86
2022/12/20 07:40:13;;;;;;;77.97;34.90;;;5.80;60.10;;;;;;4873307;29;20458;-87
2022/12/20 07:42:40;;;;;;;75.20;33.50;;;5.90;59.70;;;;;;4919001;29;20474;-86
2022/12/20 07:45:08;;;;;;;83.07;35.10;;;5.90;59.80;;;;;;4912323;29;20481;-86
2022/12/20 07:47:35;;;;;;;75.47;34.57;;;6.00;59.70;;;;;;4918065;29;20467;-86
2022/12/20 07:50:04;;;;;;;74.20;35.43;;;6.00;59.80;;;;;;4912911;29;20462;-86
2022/12/20 07:52:34;;;;;;;76.43;35.07;;;5.80;60.20;;;;;;4914506;29;20455;-85
2022/12/20 07:55:04;;;;;;;77.00;35.37;;;5.80;60.30;;;;;;4894495;29;20479;-84
2022/12/20 07:57:36;;;;;;;75.23;34.80;;;5.90;60.20;;;;;;4891305;29;20451;-86
2022/12/20 08:00:05;;;;;;;65.97;34.10;;;5.90;60.10;;;;;;4927859;29;20455;-85
2022/12/20 08:02:43;;;;;;;67.13;34.00;;;6.00;59.50;;;;;;4914934;29;20455;-87
2022/12/20 08:05:12;;;;;;;73.00;39.07;;;6.10;59.30;;;;;;4894056;29;20476;-86
2022/12/20 08:07:41;;;;;;;69.10;35.50;;;6.00;59.80;;;;;;4901744;29;20476;-86
2022/12/20 08:10:11;;;;;;;68.00;30.77;;;6.00;59.90;;;;;;4888821;29;20459;-85
2022/12/20 08:12:39;;;;;;;57.10;27.07;;;6.10;59.50;;;;;;4914712;29;20460;-86
2022/12/20 08:15:07;;;;;;;56.50;30.37;;;6.10;59.20;;;;;;4894683;29;20471;-86
2022/12/20 08:17:34;;;;;;;64.40;30.07;;;6.10;59.10;;;;;;4900059;29;20448;-86
2022/12/20 08:20:02;;;;;;;67.43;31.50;;;6.10;59.60;;;;;;4895958;29;20543;-85
2022/12/20 08:22:30;;;;;;;63.63;32.10;;;6.10;59.60;;;;;;4915026;29;20498;-86
2022/12/20 08:24:58;;;;;;;57.20;28.27;;;6.20;59.20;;;;;;4910024;29;21075;-85
2022/12/20 08:27:25;;;;;;;66.70;30.20;;;6.30;59.20;;;;;;4904124;29;20479;-85
2022/12/20 08:29:52;;;;;;;64.13;32.00;;;6.30;59.20;;;;;;4914269;29;20456;-84
2022/12/20 08:32:19;;;;;;;83.13;33.60;;;6.00;59.70;;;;;;4909971;29;20466;-87
2022/12/20 08:34:47;;;;;;;68.67;31.80;;;5.60;61.70;;;;;;4894434;29;20486;-86
2022/12/20 08:37:16;;;;;;;61.37;30.43;;;5.70;61.40;;;;;;4893689;29;20463;-86
2022/12/20 08:39:44;;;;;;;65.40;33.47;;;5.90;61.20;;;;;;4897730;29;20460;-86
2022/12/20 08:42:12;;;;;;;61.60;31.93;;;6.00;60.70;;;;;;4883392;29;20450;-85
2022/12/20 08:44:39;;;;;;;62.13;30.10;;;6.20;60.20;;;;;;4909780;29;21091;-85
2022/12/20 08:47:06;;;;;;;68.10;32.57;;;6.30;59.70;;;;;;4870424;29;20456;-86
2022/12/20 08:49:33;;;;;;;72.60;32.30;;;6.30;59.70;;;;;;4885534;29;20478;-86
2022/12/20 08:52:00;;;;;;;66.77;30.93;;;6.10;59.70;;;;;;4871254;29;20807;-86
2022/12/20 08:54:27;;;;;;;72.30;35.10;;;6.00;60.20;;;;;;4902376;29;20475;-84
2022/12/20 08:56:56;;;;;;;64.13;29.83;;;6.00;60.50;;;;;;4867746;29;21054;-85
2022/12/20 08:59:23;;;;;;;67.43;31.50;;;6.10;60.40;;;;;;4901978;29;20470;-86
2022/12/20 09:01:50;;;;;;;89.20;42.60;;;6.30;59.90;;;;;;4902026;29;20993;-85
2022/12/20 09:04:18;;;;;;;72.43;34.27;;;6.40;59.60;;;;;;4912333;29;21135;-85
2022/12/20 09:06:45;;;;;;;65.23;29.03;;;6.50;59.20;;;;;;4899510;29;20462;-86
2022/12/20 09:09:12;;;;;;;64.20;30.67;;;6.10;59.70;;;;;;4885283;29;20956;-86
2022/12/20 09:11:39;;;;;;;82.50;36.60;;;6.20;60.00;;;;;;4892728;29;20467;-86
2022/12/20 09:14:09;;;;;;;70.10;31.70;;;6.40;59.70;;;;;;4893847;29;20517;-84
2022/12/20 09:16:36;;;;;;;62.83;30.47;;;6.40;59.30;;;;;;4900940;29;20463;-85
2022/12/20 09:19:04;;;;;;;61.80;29.70;;;6.50;59.30;;;;;;4920916;29;20459;-83
2022/12/20 09:21:31;;;;;;;84.93;31.97;;;6.40;59.40;;;;;;4882838;29;20452;-85
2022/12/20 09:23:58;;;;;;;69.77;29.60;;;6.30;59.90;;;;;;4901329;29;20466;-84
2022/12/20 09:26:25;;;;;;;66.97;32.00;;;6.40;59.70;;;;;;4881244;29;20455;-84
2022/12/20 09:28:52;;;;;;;63.03;29.60;;;6.50;59.40;;;;;;4893295;29;20487;-84
2022/12/20 09:31:23;;;;;;;69.73;28.97;;;6.60;59.00;;;;;;4921018;29;20467;-84
2022/12/20 09:33:53;;;;;;;60.27;28.70;;;6.00;60.10;;;;;;4901942;29;20980;-85
2022/12/20 09:36:22;;;;;;;64.27;30.63;;;6.10;61.00;;;;;;4898942;29;20462;-84
2022/12/20 09:38:49;;;;;;;62.80;32.47;;;6.00;61.20;;;;;;4930770;28;20451;-85
2022/12/20 09:41:24;;;;;;;66.53;32.67;;;6.10;61.10;;;;;;4917286;29;20454;-86
2022/12/20 09:43:52;;;;;;;73.00;32.20;;;6.30;60.90;;;;;;4920657;29;20475;-86
2022/12/20 09:46:19;;;;;;;68.27;32.37;;;6.50;60.20;;;;;;4894051;29;20456;-85
2022/12/20 09:48:48;;;;;;;63.30;32.80;;;6.50;59.90;;;;;;4923148;29;20474;-85
2022/12/20 09:51:39;;;;;;;62.27;34.20;;;6.20;60.50;;;;;;4887852;29;20466;-85
2022/12/20 09:54:16;;;;;;;68.17;31.50;;;6.30;61.20;;;;;;4899499;29;20554;-85
2022/12/20 09:56:50;;;;;;;73.27;32.70;;;6.50;60.40;;;;;;4916040;29;20459;-86
2022/12/20 09:59:19;;;;;;;68.37;33.90;;;6.60;60.40;;;;;;4907429;29;20444;-86
2022/12/20 10:01:47;;;;;;;68.10;34.40;;;6.70;60.00;;;;;;4892346;29;20451;-85
2022/12/20 10:04:22;;;;;;;97.93;36.23;;;6.70;59.70;;;;;;4875633;29;21607;-85
2022/12/20 10:06:59;;;;;;;89.13;37.90;;;6.60;59.60;;;;;;4923858;29;20451;-85
2022/12/20 10:09:42;;;;;;;67.40;36.80;;;6.60;59.70;;;;;;4891703;29;20516;-86
2022/12/20 10:12:20;;;;;;;72.17;36.90;;;6.70;59.70;;;;;;4891446;29;20447;-85
2022/12/20 10:15:03;;;;;;;78.23;39.13;;;6.60;59.90;;;;;;4915733;29;20485;-86
2022/12/20 10:17:45;;;;;;;124.40;50.60;;;6.70;60.10;;;;;;4914750;29;20494;-86
2022/12/20 10:20:30;;;;;;;102.90;44.90;;;6.90;59.90;;;;;;4900260;29;20463;-86
2022/12/20 10:23:02;;;;;;;107.63;44.50;;;6.90;59.60;;;;;;4891205;29;20463;-86
2022/12/20 10:25:31;;;;;;;73.40;31.30;;;7.00;59.60;;;;;;4914693;29;20467;-86
2022/12/20 10:28:02;;;;;;;70.80;30.80;;;6.90;59.60;;;;;;4867315;29;20458;-85
2022/12/20 10:30:32;;;;;;;68.73;30.87;;;6.90;59.60;;;;;;4902587;29;20451;-85
2022/12/20 10:32:59;;;;;;;73.60;26.70;;;6.50;60.70;;;;;;4899675;29;20804;-86
2022/12/20 10:35:30;;;;;;;55.80;28.87;;;6.30;61.80;;;;;;4918552;29;20511;-86
2022/12/20 10:37:59;;;;;;;68.13;28.90;;;6.40;61.70;;;;;;4915652;29;20491;-84
2022/12/20 10:40:28;;;;;;;57.03;28.70;;;6.50;61.60;;;;;;4907153;29;20467;-84
2022/12/20 10:42:55;;;;;;;50.53;24.13;;;6.60;60.90;;;;;;4922741;29;20467;-84
2022/12/20 10:45:33;;;;;;;48.90;25.47;;;6.60;60.90;;;;;;4900010;29;20483;-87
2022/12/20 10:48:01;;;;;;;81.17;35.70;;;6.60;61.50;;;;;;4899547;29;20467;-85
2022/12/20 10:50:30;;;;;;;69.93;34.43;;;6.80;61.00;;;;;;4902576;29;20958;-86
2022/12/20 10:53:27;;;;;;;73.40;36.17;;;6.90;60.40;;;;;;4903007;29;20462;-86
2022/12/20 10:56:09;;;;;;;69.40;30.77;;;6.90;60.40;;;;;;4887820;29;20448;-86
2022/12/20 10:58:37;;;;;;;61.03;30.17;;;7.00;59.80;;;;;;4931868;28;20448;-86
2022/12/20 11:01:11;;;;;;;56.33;27.00;;;7.10;59.60;;;;;;4891433;29;20530;-87
2022/12/20 11:03:51;;;;;;;62.53;31.40;;;7.20;59.60;;;;;;4918877;29;20491;-86
2022/12/20 11:06:22;;;;;;;64.83;31.00;;;7.20;59.60;;;;;;4931819;28;20455;-85
2022/12/20 11:08:50;;;;;;;51.33;28.03;;;7.20;59.50;;;;;;4874756;29;20811;-86
2022/12/20 11:11:19;;;;;;;60.03;28.37;;;6.80;60.10;;;;;;4888375;29;20469;-86
2022/12/20 11:13:47;;;;;;;54.40;28.63;;;6.70;61.00;;;;;;4888173;29;20555;-86
2022/12/20 11:16:34;;;;;;;60.30;31.07;;;6.90;60.40;;;;;;4903603;29;20459;-86
2022/12/20 11:19:29;;;;;;;54.00;25.27;;;6.90;60.50;;;;;;4881410;29;1057550;-87
2022/12/20 11:22:04;;;;;;;50.80;25.53;;;6.90;60.60;;;;;;4889100;29;20206;-85
2022/12/20 11:24:36;;;;;;;67.20;29.73;;;6.80;60.50;;;;;;4877211;29;20482;-86
2022/12/20 11:27:16;;;;;;;65.40;31.27;;;6.80;60.90;;;;;;4892525;29;20459;-86
2022/12/20 11:30:04;;;;;;;52.77;27.17;;;7.00;60.50;;;;;;4888847;29;20489;-86
2022/12/20 11:32:48;;;;;;;65.80;27.67;;;7.10;59.60;;;;;;4920384;29;20974;-86
2022/12/20 11:35:22;;;;;;;55.93;27.13;;;7.10;59.60;;;;;;4922640;29;21215;-87
2022/12/20 11:37:59;;;;;;;47.60;26.33;;;7.20;59.30;;;;;;4899899;29;20459;-87
2022/12/20 11:40:32;;;;;;;54.40;28.10;;;7.20;59.10;;;;;;4871716;29;20883;-86
2022/12/20 11:43:20;;;;;;;54.00;27.80;;;7.20;59.30;;;;;;4894964;29;20523;-87
2022/12/20 11:46:01;;;;;;;57.10;25.30;;;7.30;59.20;;;;;;4886299;29;20452;-86
2022/12/20 11:48:52;;;;;;;70.20;30.57;;;7.20;59.60;;;;;;4909658;29;21856;-86
2022/12/20 11:51:23;;;;;;;60.13;29.00;;;7.10;59.90;;;;;;4900985;29;20534;-87
2022/12/20 11:53:57;;;;;;;57.87;27.33;;;7.10;60.00;;;;;;4903468;29;20475;-86
2022/12/20 11:56:27;;;;;;;57.37;30.77;;;7.00;60.40;;;;;;4872336;29;20448;-86
2022/12/20 11:58:59;;;;;;;68.63;34.93;;;6.80;61.30;;;;;;4931983;29;20541;-86
2022/12/20 12:01:32;;;;;;;66.77;32.27;;;6.90;61.20;;;;;;4891431;29;20467;-86
2022/12/20 12:04:06;;;;;;;64.33;34.17;;;7.10;60.80;;;;;;4892972;29;20486;-86
2022/12/20 12:06:38;;;;;;;70.93;34.27;;;7.30;60.20;;;;;;4886240;29;20439;-86
2022/12/20 12:09:15;;;;;;;65.83;32.73;;;7.40;59.80;;;;;;4890832;29;20484;-87
2022/12/20 12:11:47;;;;;;;67.43;33.00;;;7.40;59.70;;;;;;4886057;29;20460;-86
2022/12/20 12:14:22;;;;;;;68.80;34.57;;;7.50;59.50;;;;;;4909661;29;20489;-87
2022/12/20 12:16:52;;;;;;;60.40;32.30;;;7.50;59.20;;;;;;4880996;29;20460;-86
2022/12/20 12:19:19;;;;;;;57.03;30.20;;;7.60;59.00;;;;;;4880124;29;20561;-86
2022/12/20 12:21:50;;;;;;;65.60;29.70;;;7.60;59.00;;;;;;4870884;29;20462;-87
2022/12/20 12:24:24;;;;;;;54.10;30.13;;;7.60;59.30;;;;;;4907571;29;20486;-87
2022/12/20 12:26:52;;;;;;;59.07;32.23;;;7.60;59.20;;;;;;4881704;29;20448;-88
2022/12/20 12:29:20;;;;;;;67.93;31.93;;;7.60;59.10;;;;;;4903666;29;21000;-87
2022/12/20 12:31:53;;;;;;;62.43;32.67;;;7.60;59.00;;;;;;4915061;29;20452;-87
2022/12/20 12:34:34;;;;;;;66.80;31.97;;;7.60;58.90;;;;;;4890026;29;20553;-88
2022/12/20 12:37:42;;;;;;;71.03;30.40;;;7.70;58.90;;;;;;4888127;29;20463;-87
2022/12/20 12:40:30;;;;;;;66.33;32.33;;;7.70;59.10;;;;;;4875536;29;20466;-87
2022/12/20 12:43:40;;;;;;;57.37;29.17;;;7.70;59.00;;;;;;4892774;29;20459;-86
2022/12/20 12:46:12;;;;;;;65.53;32.57;;;7.70;58.90;;;;;;4895473;29;20447;-85
2022/12/20 12:48:43;;;;;;;59.20;31.20;;;7.70;58.90;;;;;;4871147;29;21056;-87
2022/12/20 12:51:14;;;;;;;53.97;29.87;;;7.80;59.10;;;;;;4900847;29;20477;-86
2022/12/20 12:53:44;;;;;;;64.57;31.40;;;7.80;59.00;;;;;;4886726;29;20483;-86
2022/12/20 12:56:37;;;;;;;54.53;27.87;;;7.80;58.90;;;;;;4908624;29;20455;-84
2022/12/20 12:59:22;;;;;;;57.63;30.07;;;7.80;58.90;;;;;;4890888;29;20451;-86
2022/12/20 13:01:52;;;;;;;63.87;29.90;;;7.80;59.00;;;;;;4925514;28;20461;-86
2022/12/20 13:04:25;;;;;;;66.60;31.47;;;7.80;59.10;;;;;;4878407;29;20481;-85
2022/12/20 13:07:01;;;;;;;63.53;32.23;;;7.80;59.00;;;;;;4918350;29;20474;-86